Time;durP1;ratioP1;P1;durP2;ratioP2;P2;SDS_P1;SDS_P2;PMS_P1;PMS_P2;Temp;Humidity;BMP_temperature;BMP_pressure;BME280_temperature;BME280_humidity;BME280_pressure;Samples;Min_cycle;Max_cycle;Signal;HPM_P1;HPM_P2
2023/12/04 14:45:25;;;;;;;;;;;;;;;1.57;74.13;99177.50;1092559;46;1942;-81
2023/12/04 14:46:45;;;;;;;;;;;;;;;1.65;74.17;99182.25;1088780;54;963;-80
2023/12/04 14:47:58;;;;;;;;;;;;;;;1.64;74.05;99176.09;1088821;54;912;-80
2023/12/04 14:49:05;;;;;;;;;;;;;;;1.73;73.84;99182.53;1088783;54;973;-80
2023/12/04 14:50:19;;;;;;;;;;;;;;;1.71;73.96;99174.72;1088432;46;926;-81
2023/12/04 14:51:24;;;;;;;;;;;;;;;1.82;73.83;99183.66;1088566;54;1018;-80
2023/12/04 14:52:48;;;;;;;;;;;;;;;1.89;73.63;99176.97;1088479;54;1082;-79
2023/12/04 14:54:12;;;;;;;;;;;;;;;1.93;73.77;99175.00;1088478;54;915;-80
2023/12/04 15:06:35;;;;;;;;;;;;;;;2.02;73.45;99166.41;1088465;47;1060;-79
2023/12/04 15:14:51;;;;;;;;;;;;;;;2.03;73.65;99162.81;1088336;47;1405;-80
2023/12/04 15:17:17;;;;;;;;;;;;;;;2.00;73.65;99163.03;1088387;47;899;-81
2023/12/04 15:18:34;;;;;;;;;;;;;;;1.98;73.55;99163.16;1088349;54;892;-80
2023/12/04 15:19:53;;;;;;;;;;;;;;;2.05;73.34;99165.34;1088275;54;883;-82
2023/12/04 15:20:54;;;;;;;;;;;;;;;2.03;73.30;99173.38;1088355;54;1840;-81
2023/12/04 15:23:21;;;;;;;;;;;;;;;2.03;73.58;99168.09;1088425;54;1055;-81
2023/12/04 15:24:22;;;;;;;;;;;;;;;2.13;73.14;99165.63;1088444;46;1353;-81
2023/12/04 15:25:23;;;;;;;;;;;;;;;2.01;73.31;99181.38;1088149;54;1306;-81
2023/12/04 15:26:23;;;;;;;;;;;;;;;2.14;73.19;99167.31;1088340;54;1150;-80
2023/12/04 15:27:27;;;;;;;;;;;;;;;2.20;72.95;99164.19;1088350;47;984;-80
2023/12/04 15:28:27;;;;;;;;;;;;;;;2.25;72.74;99161.22;1088188;47;1126;-81
2023/12/04 15:29:30;;;;;;;;;;;;;;;2.22;72.71;99158.84;1088306;54;1013;-81
2023/12/04 15:30:31;;;;;;;;;;;;;;;2.15;73.27;99161.06;1088608;46;958;-81
2023/12/04 15:31:35;;;;;;;;;;;;;;;2.12;73.25;99156.03;1088339;47;1025;-81
2023/12/04 15:32:44;;;;;;;;;;;;;;;2.19;72.96;99154.59;1088292;54;1004;-81
2023/12/04 15:33:45;;;;;;;;;;;;;;;2.17;73.04;99157.38;1088148;54;1014;-80
2023/12/04 15:34:46;;;;;;;;;;;;;;;2.24;72.96;99154.25;1088475;46;1361;-80
2023/12/04 15:35:59;;;;;;;;;;;;;;;2.25;72.79;99162.09;1088327;54;962;-81
2023/12/04 15:37:02;;;;;;;;;;;;;;;2.27;72.65;99154.03;1088346;46;963;-81
2023/12/04 15:38:03;;;;;;;;;;;;;;;2.23;72.46;99153.44;1088062;54;1428;-80
2023/12/04 15:39:19;;;;;;;;;;;;;;;2.21;72.40;99151.88;1088163;54;971;-81
2023/12/04 15:40:31;;;;;;;;;;;;;;;2.25;72.34;99154.16;1088095;54;1840;-81
2023/12/04 15:41:32;;;;;;;;;;;;;;;2.29;72.63;99157.41;1088105;47;1154;-81
2023/12/04 15:42:43;;;;;;;;;;;;;;;2.28;72.42;99159.19;1088077;54;1056;-81
2023/12/04 15:43:48;;;;;;;;;;;;;;;2.29;72.43;99152.97;1088140;54;1058;-79
2023/12/04 15:44:48;;;;;;;;;;;;;;;2.28;72.58;99153.94;1088176;54;1335;-81
2023/12/04 15:45:52;;;;;;;;;;;;;;;2.31;72.29;99150.25;1088034;54;1095;-81
2023/12/04 15:46:53;;;;;;;;;;;;;;;2.37;72.48;99154.19;1087969;46;999;-80
2023/12/04 15:47:54;;;;;;;;;;;;;;;2.38;72.21;99161.16;1088209;54;1014;-80
2023/12/04 15:48:55;;;;;;;;;;;;;;;2.34;72.13;99152.63;1088266;54;1032;-81
2023/12/04 15:49:59;;;;;;;;;;;;;;;2.36;72.16;99163.09;1088132;54;942;-80
2023/12/04 15:51:00;;;;;;;;;;;;;;;2.32;72.31;99160.66;1088072;54;997;-80
2023/12/04 15:52:01;;;;;;;;;;;;;;;2.36;72.23;99152.53;1088389;46;1008;-80
2023/12/04 15:53:02;;;;;;;;;;;;;;;2.36;72.43;99144.63;1087959;47;1359;-81
2023/12/04 15:54:06;;;;;;;;;;;;;;;2.39;72.03;99147.00;1088116;54;975;-80
2023/12/04 15:55:10;;;;;;;;;;;;;;;2.29;72.25;99142.41;1088094;54;1357;-79
2023/12/04 15:56:11;;;;;;;;;;;;;;;2.27;72.42;99144.31;1087874;47;942;-81
2023/12/04 15:57:16;;;;;;;;;;;;;;;2.22;72.43;99138.56;1087969;54;997;-80
2023/12/04 15:58:17;;;;;;;;;;;;;;;2.26;72.29;99142.66;1087987;54;1011;-80
2023/12/04 15:59:18;;;;;;;;;;;;;;;2.29;72.10;99142.41;1087889;54;1041;-81
2023/12/04 16:00:22;;;;;;;;;;;;;;;2.32;72.21;99141.34;1087930;47;1844;-79
2023/12/04 16:01:23;;;;;;;;;;;;;;;2.31;72.36;99145.78;1088089;47;1069;-81
2023/12/04 16:02:26;;;;;;;;;;;;;;;2.22;72.45;99145.66;1088084;54;986;-80
2023/12/04 16:03:30;;;;;;;;;;;;;;;2.16;72.58;99147.75;1088139;54;1078;-80
2023/12/04 16:04:30;;;;;;;;;;;;;;;2.05;72.67;99134.53;1087940;47;1311;-80
2023/12/04 16:05:35;;;;;;;;;;;;;;;2.01;73.19;99141.00;1087857;47;944;-78
2023/12/04 16:06:36;;;;;;;;;;;;;;;1.93;73.18;99141.53;1087988;47;989;-80
2023/12/04 16:07:40;;;;;;;;;;;;;;;2.06;73.37;99130.13;1087893;47;969;-80
2023/12/04 16:08:40;;;;;;;;;;;;;;;1.91;73.86;99134.72;1088064;54;1019;-80
2023/12/04 16:09:50;;;;;;;;;;;;;;;1.89;74.07;99129.53;1087993;54;1027;-80
2023/12/04 16:10:54;;;;;;;;;;;;;;;1.91;73.94;99132.91;1088132;47;1014;-79
2023/12/04 16:12:04;;;;;;;;;;;;;;;1.87;74.07;99127.00;1088050;46;1018;-80
2023/12/04 16:13:07;;;;;;;;;;;;;;;1.75;74.52;99134.97;1087978;47;916;-79
2023/12/04 16:14:12;;;;;;;;;;;;;;;1.74;74.89;99131.50;1088014;47;1007;-78
2023/12/04 16:15:13;;;;;;;;;;;;;;;1.71;75.00;99123.81;1088014;46;1276;-78
2023/12/04 16:16:16;;;;;;;;;;;;;;;1.70;75.20;99115.06;1088036;46;1178;-78
2023/12/04 16:17:17;;;;;;;;;;;;;;;1.56;75.81;99115.22;1087913;54;953;-80
2023/12/04 16:18:20;;;;;;;;;;;;;;;1.46;76.15;99115.03;1087715;47;970;-79
2023/12/04 16:19:21;;;;;;;;;;;;;;;1.34;76.76;99114.09;1087784;54;1020;-78
2023/12/04 16:20:24;;;;;;;;;;;;;;;1.24;77.30;99107.81;1087680;47;1067;-79
2023/12/04 16:21:24;;;;;;;;;;;;;;;1.28;77.29;99101.38;1087822;47;1859;-79
2023/12/04 16:22:28;;;;;;;;;;;;;;;1.28;77.69;99098.75;1088117;46;1127;-80
2023/12/04 16:23:29;;;;;;;;;;;;;;;1.34;77.37;99093.03;1087787;54;908;-80
2023/12/04 16:24:32;;;;;;;;;;;;;;;1.28;78.08;99100.53;1087646;54;1313;-79
2023/12/04 16:25:33;;;;;;;;;;;;;;;1.19;78.17;99096.75;1087713;47;960;-78
2023/12/04 16:26:37;;;;;;;;;;;;;;;1.07;78.97;99086.16;1087590;47;1038;-79
2023/12/04 16:27:40;;;;;;;;;;;;;;;1.12;79.40;99092.88;1087808;47;949;-79
2023/12/04 16:28:41;;;;;;;;;;;;;;;1.06;79.47;99089.72;1087646;47;1017;-78
2023/12/04 16:29:45;;;;;;;;;;;;;;;1.16;79.54;99094.34;1087700;46;1006;-79
2023/12/04 16:30:45;;;;;;;;;;;;;;;1.26;79.08;99084.84;1087707;54;1010;-80
2023/12/04 16:31:49;;;;;;;;;;;;;;;1.30;79.14;99086.31;1087851;54;999;-78
2023/12/04 16:32:51;;;;;;;;;;;;;;;1.31;78.94;99088.00;1087690;54;920;-78
2023/12/04 16:33:55;;;;;;;;;;;;;;;1.45;78.64;99089.66;1087844;54;1004;-78
2023/12/04 16:34:55;;;;;;;;;;;;;;;1.62;78.02;99084.94;1087643;54;1384;-79
2023/12/04 16:35:56;;;;;;;;;;;;;;;1.60;78.06;99077.16;1087855;47;992;-79
2023/12/04 16:37:00;;;;;;;;;;;;;;;1.57;78.18;99074.75;1087868;47;943;-79
2023/12/04 16:38:02;;;;;;;;;;;;;;;1.62;78.26;99059.44;1087980;47;948;-78
2023/12/04 16:39:05;;;;;;;;;;;;;;;1.63;78.12;99063.75;1087647;47;942;-78
2023/12/04 16:40:07;;;;;;;;;;;;;;;1.63;78.07;99060.28;1087726;54;902;-77
2023/12/04 16:41:10;;;;;;;;;;;;;;;1.54;78.60;99051.25;1088029;54;1856;-79
2023/12/04 16:42:14;;;;;;;;;;;;;;;1.63;78.49;99052.38;1087872;54;946;-78
2023/12/04 16:43:19;;;;;;;;;;;;;;;1.66;78.38;99055.63;1088119;47;1040;-78
2023/12/04 16:44:19;;;;;;;;;;;;;;;1.53;78.71;99049.56;1087787;47;1423;-79
2023/12/04 16:45:20;;;;;;;;;;;;;;;1.61;78.19;99043.75;1087733;47;1018;-78
2023/12/04 16:46:24;;;;;;;;;;;;;;;1.66;78.20;99046.88;1087209;47;1165;-79
2023/12/04 16:47:25;;;;;;;;;;;;;;;1.81;77.77;99047.53;1087855;47;1027;-79
2023/12/04 16:48:28;;;;;;;;;;;;;;;1.84;77.67;99040.25;1087755;47;1074;-79
2023/12/04 16:49:28;;;;;;;;;;;;;;;1.89;77.56;99039.06;1087769;54;1008;-77
2023/12/04 16:50:31;;;;;;;;;;;;;;;1.95;77.28;99036.84;1087710;54;1042;-78
2023/12/04 16:51:34;;;;;;;;;;;;;;;2.07;76.99;99027.16;1087853;47;954;-78
2023/12/04 16:52:35;;;;;;;;;;;;;;;1.94;77.32;99027.25;1087712;47;1029;-78
2023/12/04 16:53:36;;;;;;;;;;;;;;;2.02;77.02;99024.03;1088073;47;959;-77
2023/12/04 16:54:39;;;;;;;;;;;;;;;2.02;77.31;99024.88;1087493;47;1283;-79
2023/12/04 16:55:40;;;;;;;;;;;;;;;2.05;77.14;99026.44;1087652;54;997;-79
2023/12/04 16:56:45;;;;;;;;;;;;;;;2.03;77.25;99023.91;1087992;47;946;-78
2023/12/04 16:57:48;;;;;;;;;;;;;;;2.02;77.30;99026.69;1087919;54;973;-79
2023/12/04 16:58:53;;;;;;;;;;;;;;;2.09;77.03;99024.41;1087628;47;1003;-79
2023/12/04 16:59:54;;;;;;;;;;;;;;;2.14;76.88;99027.53;1087880;47;947;-80
2023/12/04 17:00:58;;;;;;;;;;;;;;;2.16;76.82;99028.28;1087593;54;1844;-80
2023/12/04 17:01:59;;;;;;;;;;;;;;;2.12;77.05;99026.81;1087769;54;968;-80
2023/12/04 17:03:02;;;;;;;;;;;;;;;2.10;77.25;99041.91;1087857;47;1031;-79
2023/12/04 17:04:03;;;;;;;;;;;;;;;2.10;77.09;99037.47;1087862;47;878;-79
2023/12/04 17:05:10;;;;;;;;;;;;;;;2.09;77.01;99041.06;1087763;54;1276;-80
2023/12/04 17:06:10;;;;;;;;;;;;;;;2.12;77.03;99029.44;1087689;47;849;-80
2023/12/04 17:07:14;;;;;;;;;;;;;;;2.16;76.93;99031.75;1087753;47;945;-79
2023/12/04 17:08:14;;;;;;;;;;;;;;;2.19;76.81;99033.28;1087909;54;972;-80
2023/12/04 17:09:19;;;;;;;;;;;;;;;2.18;76.70;99028.97;1087743;47;936;-81
2023/12/04 17:10:19;;;;;;;;;;;;;;;2.18;76.85;99023.69;1087888;54;1045;-79
2023/12/04 17:11:22;;;;;;;;;;;;;;;2.27;76.58;99023.00;1087807;54;1000;-80
2023/12/04 17:12:24;;;;;;;;;;;;;;;2.30;76.50;99025.41;1087754;54;1113;-80
2023/12/04 17:13:29;;;;;;;;;;;;;;;2.35;76.59;99019.78;1087955;47;1038;-79
2023/12/04 17:14:30;;;;;;;;;;;;;;;2.39;76.28;99020.38;1088062;47;1372;-78
2023/12/04 17:15:35;;;;;;;;;;;;;;;2.40;76.36;99022.06;1087496;54;911;-79
2023/12/04 17:16:35;;;;;;;;;;;;;;;2.37;76.42;99022.28;1087512;47;987;-79
2023/12/04 17:17:38;;;;;;;;;;;;;;;2.38;76.30;99018.69;1087480;47;1046;-81
2023/12/04 17:18:39;;;;;;;;;;;;;;;2.44;76.08;99011.16;1087574;54;997;-79
2023/12/04 17:19:43;;;;;;;;;;;;;;;2.48;75.75;99015.25;1087475;54;1077;-79
2023/12/04 17:20:49;;;;;;;;;;;;;;;2.44;76.04;99010.34;1087648;47;968;-81
2023/12/04 17:21:53;;;;;;;;;;;;;;;2.42;76.18;99017.53;1087491;54;1022;-80
2023/12/04 17:22:56;;;;;;;;;;;;;;;2.36;76.05;99020.66;1087416;47;1029;-79
2023/12/04 17:23:59;;;;;;;;;;;;;;;2.29;76.27;99026.38;1087550;54;997;-80
2023/12/04 17:25:00;;;;;;;;;;;;;;;2.27;76.20;99019.53;1087547;47;1282;-79
2023/12/04 17:26:03;;;;;;;;;;;;;;;2.23;76.15;99011.03;1087418;54;1010;-79
2023/12/04 17:27:05;;;;;;;;;;;;;;;2.18;76.53;99018.44;1087615;47;1131;-80
2023/12/04 17:28:09;;;;;;;;;;;;;;;2.15;76.44;99010.75;1087584;47;1033;-79
2023/12/04 17:29:12;;;;;;;;;;;;;;;2.20;76.63;99013.88;1087562;54;975;-81
2023/12/04 17:30:16;;;;;;;;;;;;;;;2.16;76.68;99015.09;1087659;54;895;-79
2023/12/04 17:31:16;;;;;;;;;;;;;;;2.16;76.92;99009.81;1087810;51;899;-79
2023/12/04 17:32:21;;;;;;;;;;;;;;;2.21;76.85;99001.56;1087826;54;975;-81
2023/12/04 17:33:21;;;;;;;;;;;;;;;2.24;77.00;98993.38;1087846;54;1008;-79
2023/12/04 17:34:26;;;;;;;;;;;;;;;2.24;76.94;98990.75;1087761;47;1374;-79
2023/12/04 17:35:26;;;;;;;;;;;;;;;2.32;76.48;98993.63;1087823;47;948;-79
2023/12/04 17:36:31;;;;;;;;;;;;;;;2.39;76.57;98989.59;1087928;54;993;-78
2023/12/04 17:37:33;;;;;;;;;;;;;;;2.47;76.15;98986.34;1087903;54;973;-79
2023/12/04 17:38:36;;;;;;;;;;;;;;;2.53;76.14;98992.94;1087983;54;916;-80
2023/12/04 17:39:39;;;;;;;;;;;;;;;2.58;75.80;98988.16;1088059;47;974;-80
2023/12/04 17:40:42;;;;;;;;;;;;;;;2.60;75.77;98986.22;1087922;54;998;-81
2023/12/04 17:41:49;;;;;;;;;;;;;;;2.62;75.77;98990.44;1087924;54;1841;-81
2023/12/04 17:42:53;;;;;;;;;;;;;;;2.63;75.57;98992.13;1087893;54;941;-80
2023/12/04 17:43:54;;;;;;;;;;;;;;;2.67;75.30;98984.81;1088429;47;924;-80
2023/12/04 17:45:07;;;;;;;;;;;;;;;2.68;75.33;98993.53;1088130;47;1322;-79
2023/12/04 17:46:08;;;;;;;;;;;;;;;2.69;75.23;98995.22;1087877;54;1078;-80
2023/12/04 17:47:14;;;;;;;;;;;;;;;2.72;74.98;98985.25;1087317;54;1129;-81
2023/12/04 17:48:15;;;;;;;;;;;;;;;2.60;75.10;98981.78;1087930;47;951;-80
2023/12/04 17:49:18;;;;;;;;;;;;;;;2.67;75.00;98990.09;1087911;47;924;-80
2023/12/04 17:50:18;;;;;;;;;;;;;;;2.73;74.98;98983.47;1087897;54;1033;-80
2023/12/04 17:51:19;;;;;;;;;;;;;;;2.63;75.16;98983.34;1087829;47;1070;-81
2023/12/04 17:52:23;;;;;;;;;;;;;;;2.69;75.03;98982.03;1087813;47;1061;-80
2023/12/04 17:53:24;;;;;;;;;;;;;;;2.71;75.00;98980.13;1087854;54;1195;-80
2023/12/04 17:54:27;;;;;;;;;;;;;;;2.76;74.93;98981.44;1087818;54;1232;-78
2023/12/04 17:55:29;;;;;;;;;;;;;;;2.79;74.90;98972.44;1087898;47;948;-80
2023/12/04 17:56:33;;;;;;;;;;;;;;;2.78;74.81;98968.97;1087976;47;862;-79
2023/12/04 17:57:45;;;;;;;;;;;;;;;2.84;74.62;98977.34;1087806;54;1025;-79
2023/12/04 17:58:48;;;;;;;;;;;;;;;2.77;74.63;98974.34;1087870;54;1046;-80
2023/12/04 18:01:40;;;;;;;;;;;;;;;2.74;74.75;98966.69;1087983;47;1854;-80
2023/12/04 18:02:42;;;;;;;;;;;;;;;2.81;74.36;98962.59;1088093;54;990;-79
2023/12/04 18:03:47;;;;;;;;;;;;;;;2.79;74.29;98960.06;1088064;54;916;-80
2023/12/04 18:04:48;;;;;;;;;;;;;;;2.80;74.34;98960.91;1087964;54;1267;-80
2023/12/04 18:05:51;;;;;;;;;;;;;;;2.87;74.09;98956.00;1088066;47;920;-79
2023/12/04 18:06:53;;;;;;;;;;;;;;;2.84;73.84;98954.41;1088150;46;998;-79
2023/12/04 18:07:56;;;;;;;;;;;;;;;2.78;73.53;98953.13;1088073;46;1066;-80
2023/12/04 18:08:57;;;;;;;;;;;;;;;2.79;73.55;98951.31;1088140;54;1039;-81
2023/12/04 18:10:00;;;;;;;;;;;;;;;2.71;73.26;98951.91;1088099;47;1025;-79
2023/12/04 18:11:02;;;;;;;;;;;;;;;2.59;73.53;98958.19;1088245;54;977;-79
2023/12/04 18:12:07;;;;;;;;;;;;;;;2.52;73.67;98956.97;1088166;46;943;-79
2023/12/04 18:13:09;;;;;;;;;;;;;;;2.53;73.82;98959.50;1088108;54;982;-80
2023/12/04 18:14:12;;;;;;;;;;;;;;;2.61;73.66;98953.59;1088163;54;969;-81
2023/12/04 18:15:15;;;;;;;;;;;;;;;2.61;73.44;98945.69;1087895;54;1282;-82
2023/12/04 18:16:19;;;;;;;;;;;;;;;2.57;73.48;98945.09;1088526;46;881;-79
2023/12/04 18:17:41;;;;;;;;;;;;;;;2.52;73.44;98931.44;1088017;47;952;-84
2023/12/04 18:18:48;;;;;;;;;;;;;;;2.61;73.26;98930.69;1088065;46;999;-81
2023/12/04 18:19:53;;;;;;;;;;;;;;;2.68;73.30;98941.63;1088091;47;1033;-79
2023/12/04 18:20:59;;;;;;;;;;;;;;;2.71;72.95;98927.34;1087966;46;945;-79
2023/12/04 18:22:00;;;;;;;;;;;;;;;2.73;73.12;98928.88;1088078;54;1850;-79
2023/12/04 18:23:10;;;;;;;;;;;;;;;2.75;73.02;98931.38;1088053;47;1138;-79
2023/12/04 18:24:11;;;;;;;;;;;;;;;2.79;72.81;98927.56;1088032;54;1011;-79
2023/12/04 18:25:15;;;;;;;;;;;;;;;2.74;72.78;98925.28;1088109;54;1345;-79
2023/12/04 18:26:17;;;;;;;;;;;;;;;2.69;72.90;98921.34;1088177;54;1018;-79
2023/12/04 18:27:20;;;;;;;;;;;;;;;2.74;72.91;98924.47;1088882;46;1052;-81
2023/12/04 18:28:23;;;;;;;;;;;;;;;2.78;72.53;98918.81;1088318;47;1052;-81
2023/12/04 18:29:25;;;;;;;;;;;;;;;2.79;72.59;98912.53;1088347;54;1046;-81
2023/12/04 18:30:29;;;;;;;;;;;;;;;2.72;72.86;98915.81;1088296;54;946;-80
2023/12/04 18:31:30;;;;;;;;;;;;;;;2.74;72.82;98914.72;1088361;47;1114;-79
2023/12/04 18:32:34;;;;;;;;;;;;;;;2.78;72.46;98918.81;1088308;46;919;-79
2023/12/04 18:33:35;;;;;;;;;;;;;;;2.81;72.69;98915.91;1088373;54;966;-79
2023/12/04 18:34:42;;;;;;;;;;;;;;;2.79;72.59;98915.19;1088234;54;1304;-79
2023/12/04 18:35:43;;;;;;;;;;;;;;;2.71;72.98;98911.50;1088446;54;1034;-79
2023/12/04 18:36:48;;;;;;;;;;;;;;;2.81;72.58;98907.16;1088192;54;1059;-83
2023/12/04 18:37:54;;;;;;;;;;;;;;;2.79;72.40;98909.91;1088278;54;1081;-79
2023/12/04 18:39:00;;;;;;;;;;;;;;;2.83;72.64;98913.16;1088255;54;881;-80
2023/12/04 18:40:01;;;;;;;;;;;;;;;2.84;72.46;98914.81;1088265;54;1018;-78
2023/12/04 18:41:05;;;;;;;;;;;;;;;2.85;72.61;98911.22;1088233;46;1000;-80
2023/12/04 18:42:07;;;;;;;;;;;;;;;2.84;72.23;98914.00;1088157;47;1854;-80
2023/12/04 18:43:10;;;;;;;;;;;;;;;2.82;72.36;98914.13;1088065;47;980;-80
2023/12/04 18:44:11;;;;;;;;;;;;;;;2.76;72.58;98918.09;1088089;47;973;-80
2023/12/04 18:45:17;;;;;;;;;;;;;;;2.78;72.26;98913.53;1088125;54;1356;-80
2023/12/04 18:46:18;;;;;;;;;;;;;;;2.78;72.21;98915.31;1088160;54;968;-80
2023/12/04 18:47:23;;;;;;;;;;;;;;;2.81;72.21;98909.81;1087924;54;1124;-79
2023/12/04 18:48:25;;;;;;;;;;;;;;;2.83;72.51;98899.97;1088179;54;938;-79
2023/12/04 18:49:30;;;;;;;;;;;;;;;2.73;72.60;98897.22;1088589;46;894;-78
2023/12/04 18:50:41;;;;;;;;;;;;;;;2.77;72.59;98903.94;1088020;54;880;-81
2023/12/04 18:51:45;;;;;;;;;;;;;;;2.67;72.67;98903.00;1088266;54;1003;-79
2023/12/04 18:52:53;;;;;;;;;;;;;;;2.72;72.57;98898.16;1088184;54;968;-80
2023/12/04 18:53:56;;;;;;;;;;;;;;;2.77;72.87;98911.84;1088203;47;930;-80
2023/12/04 18:54:57;;;;;;;;;;;;;;;2.83;72.65;98905.25;1088163;54;1402;-81
2023/12/04 18:56:00;;;;;;;;;;;;;;;2.84;72.63;98914.81;1088183;54;1053;-80
2023/12/04 18:57:10;;;;;;;;;;;;;;;2.74;72.66;98898.06;1088632;46;1037;-80
2023/12/04 18:58:15;;;;;;;;;;;;;;;2.76;72.58;98904.03;1088049;54;995;-79
2023/12/04 18:59:16;;;;;;;;;;;;;;;2.71;72.96;98898.31;1088064;54;967;-80
2023/12/04 19:00:23;;;;;;;;;;;;;;;2.74;72.75;98903.34;1088188;54;1060;-79
2023/12/04 19:01:24;;;;;;;;;;;;;;;2.78;72.99;98900.34;1088088;54;890;-79
2023/12/04 19:02:28;;;;;;;;;;;;;;;2.83;72.72;98902.59;1088058;47;976;-80
2023/12/04 19:03:29;;;;;;;;;;;;;;;2.85;72.67;98899.84;1088121;54;1052;-78
2023/12/04 19:04:34;;;;;;;;;;;;;;;2.79;72.89;98902.00;1088039;47;1326;-80
2023/12/04 19:05:34;;;;;;;;;;;;;;;2.89;72.67;98894.19;1088150;54;920;-80
2023/12/04 19:06:38;;;;;;;;;;;;;;;2.80;73.05;98894.94;1088095;54;1049;-81
2023/12/04 19:07:41;;;;;;;;;;;;;;;2.77;73.08;98893.38;1088512;46;1060;-79
2023/12/04 19:08:44;;;;;;;;;;;;;;;2.88;72.99;98891.69;1088067;47;972;-81
2023/12/04 19:09:48;;;;;;;;;;;;;;;2.90;72.78;98887.94;1088050;54;1039;-79
2023/12/04 19:10:49;;;;;;;;;;;;;;;2.89;72.91;98890.69;1088199;54;1068;-78
2023/12/04 19:11:54;;;;;;;;;;;;;;;2.87;73.16;98890.81;1088230;54;1015;-80
2023/12/04 19:12:55;;;;;;;;;;;;;;;2.95;72.93;98892.84;1088031;54;948;-81
2023/12/04 19:13:59;;;;;;;;;;;;;;;2.91;72.98;98899.31;1088194;47;992;-81
2023/12/04 19:14:59;;;;;;;;;;;;;;;2.90;72.94;98887.94;1088064;54;1416;-80
2023/12/04 19:16:04;;;;;;;;;;;;;;;2.88;73.15;98896.97;1088241;54;1126;-80
2023/12/04 19:17:05;;;;;;;;;;;;;;;2.90;73.29;98890.59;1088192;54;989;-80
2023/12/04 19:18:08;;;;;;;;;;;;;;;2.93;73.25;98887.69;1088171;54;1012;-81
2023/12/04 19:19:09;;;;;;;;;;;;;;;2.87;73.46;98887.34;1088263;54;1178;-79
2023/12/04 19:20:12;;;;;;;;;;;;;;;2.88;73.25;98884.59;1088245;54;950;-80
2023/12/04 19:21:13;;;;;;;;;;;;;;;2.88;73.43;98889.88;1088142;54;1043;-80
2023/12/04 19:22:20;;;;;;;;;;;;;;;2.94;73.27;98894.63;1088199;54;1852;-80
2023/12/04 19:23:21;;;;;;;;;;;;;;;2.95;73.18;98885.75;1088219;46;1012;-79
2023/12/04 19:24:25;;;;;;;;;;;;;;;2.97;73.11;98894.41;1088133;47;1411;-81
2023/12/04 19:25:26;;;;;;;;;;;;;;;2.94;73.01;98892.00;1088157;54;1032;-81
2023/12/04 19:26:30;;;;;;;;;;;;;;;2.86;73.34;98883.88;1088090;47;1176;-82
2023/12/04 19:27:30;;;;;;;;;;;;;;;2.87;73.56;98884.72;1088177;54;952;-81
2023/12/04 19:28:36;;;;;;;;;;;;;;;2.84;73.60;98883.13;1087924;47;973;-80
2023/12/04 19:29:37;;;;;;;;;;;;;;;2.88;73.72;98873.19;1088088;54;998;-80
2023/12/04 19:30:40;;;;;;;;;;;;;;;2.86;73.90;98870.66;1088086;47;1026;-80
2023/12/04 19:31:41;;;;;;;;;;;;;;;2.93;73.58;98877.13;1088065;47;992;-80
2023/12/04 19:32:47;;;;;;;;;;;;;;;2.96;73.24;98876.88;1087830;47;945;-80
2023/12/04 19:33:48;;;;;;;;;;;;;;;2.95;73.62;98872.56;1088209;46;976;-80
2023/12/04 19:34:51;;;;;;;;;;;;;;;2.97;73.49;98865.34;1087913;54;1382;-80
2023/12/04 19:35:54;;;;;;;;;;;;;;;2.89;73.64;98865.16;1088166;46;1009;-78
2023/12/04 19:36:57;;;;;;;;;;;;;;;2.81;74.02;98864.94;1087972;54;1069;-80
2023/12/04 19:38:00;;;;;;;;;;;;;;;2.88;73.74;98873.19;1087888;47;905;-79
2023/12/04 19:39:03;;;;;;;;;;;;;;;2.88;73.77;98876.66;1087995;54;1004;-80
2023/12/04 19:40:05;;;;;;;;;;;;;;;2.88;73.73;98871.38;1087928;47;890;-79
2023/12/04 19:41:08;;;;;;;;;;;;;;;2.88;73.89;98868.75;1087853;47;1020;-81
2023/12/04 19:42:09;;;;;;;;;;;;;;;2.93;73.83;98869.19;1087973;46;1858;-80
2023/12/04 19:43:15;;;;;;;;;;;;;;;2.92;73.56;98864.03;1088140;46;967;-80
2023/12/04 19:44:16;;;;;;;;;;;;;;;2.90;73.36;98863.31;1088044;54;1361;-79
2023/12/04 19:45:27;;;;;;;;;;;;;;;2.76;73.59;98864.44;1087929;47;1001;-81
2023/12/04 19:46:28;;;;;;;;;;;;;;;2.76;73.76;98870.59;1088059;54;1035;-80
2023/12/04 19:47:29;;;;;;;;;;;;;;;2.76;73.78;98867.09;1087782;54;986;-79
2023/12/04 19:48:33;;;;;;;;;;;;;;;2.72;73.96;98866.50;1087674;54;1017;-79
2023/12/04 19:49:35;;;;;;;;;;;;;;;2.77;73.85;98877.53;1088168;47;955;-80
2023/12/04 19:50:41;;;;;;;;;;;;;;;2.75;73.91;98868.03;1088191;47;995;-79
2023/12/04 19:51:43;;;;;;;;;;;;;;;2.79;73.89;98880.03;1088163;54;959;-78
2023/12/04 19:52:56;;;;;;;;;;;;;;;2.73;73.87;98876.09;1088099;54;994;-81
2023/12/04 19:53:59;;;;;;;;;;;;;;;2.78;73.90;98873.94;1088287;47;945;-79
2023/12/04 19:54:59;;;;;;;;;;;;;;;2.82;73.66;98879.81;1088071;47;1233;-81
2023/12/04 19:56:03;;;;;;;;;;;;;;;2.80;73.94;98866.72;1087991;54;908;-81
2023/12/04 19:57:04;;;;;;;;;;;;;;;2.75;74.00;98868.03;1088123;54;900;-80
2023/12/04 19:58:08;;;;;;;;;;;;;;;2.67;73.96;98867.81;1088015;54;985;-82
2023/12/04 19:59:09;;;;;;;;;;;;;;;2.63;74.17;98876.00;1088030;54;1037;-80
2023/12/04 20:00:13;;;;;;;;;;;;;;;2.68;74.11;98869.50;1088219;54;918;-80
2023/12/04 20:01:23;;;;;;;;;;;;;;;2.67;73.92;98867.81;1088058;47;881;-78
2023/12/04 20:02:27;;;;;;;;;;;;;;;2.59;73.87;98866.66;1088032;54;1849;-80
2023/12/04 20:03:28;;;;;;;;;;;;;;;2.59;74.16;98857.91;1087925;54;932;-83
2023/12/04 20:04:32;;;;;;;;;;;;;;;2.58;74.25;98862.31;1088181;47;1293;-80
2023/12/04 20:05:33;;;;;;;;;;;;;;;2.60;74.12;98865.69;1088101;47;998;-79
2023/12/04 20:06:37;;;;;;;;;;;;;;;2.60;74.05;98864.84;1088188;54;994;-79
2023/12/04 20:07:38;;;;;;;;;;;;;;;2.58;74.49;98864.16;1088054;54;1001;-80
2023/12/04 20:08:42;;;;;;;;;;;;;;;2.61;74.36;98867.38;1088218;54;993;-80
2023/12/04 20:09:47;;;;;;;;;;;;;;;2.65;74.02;98863.50;1088222;54;982;-82
2023/12/04 20:10:51;;;;;;;;;;;;;;;2.69;74.15;98865.91;1088167;54;1129;-78
2023/12/04 20:11:55;;;;;;;;;;;;;;;2.67;74.21;98873.09;1088216;46;994;-83
2023/12/04 20:12:59;;;;;;;;;;;;;;;2.69;74.03;98873.81;1088203;54;930;-81
2023/12/04 20:14:00;;;;;;;;;;;;;;;2.77;74.06;98864.34;1088139;54;953;-81
2023/12/04 20:15:04;;;;;;;;;;;;;;;2.76;74.13;98867.94;1088041;54;1269;-80
2023/12/04 20:16:18;;;;;;;;;;;;;;;2.64;74.34;98861.00;1088157;47;923;-80
2023/12/04 20:17:29;;;;;;;;;;;;;;;2.55;74.40;98862.56;1088173;47;984;-80
2023/12/04 20:18:30;;;;;;;;;;;;;;;2.69;74.06;98868.56;1088173;54;1041;-81
2023/12/04 20:19:33;;;;;;;;;;;;;;;2.71;74.03;98861.34;1088130;47;893;-80
2023/12/04 20:20:34;;;;;;;;;;;;;;;2.76;73.83;98857.38;1088239;54;1023;-81
2023/12/04 20:21:37;;;;;;;;;;;;;;;2.73;73.83;98859.44;1087921;54;1054;-79
2023/12/04 20:22:39;;;;;;;;;;;;;;;2.76;73.65;98860.03;1088038;54;1849;-79
2023/12/04 20:23:42;;;;;;;;;;;;;;;2.76;73.75;98865.31;1088168;54;1015;-81
2023/12/04 20:24:47;;;;;;;;;;;;;;;2.75;73.52;98865.41;1088244;54;1344;-80
2023/12/04 20:25:51;;;;;;;;;;;;;;;2.69;73.68;98863.28;1088310;54;968;-81
2023/12/04 20:26:53;;;;;;;;;;;;;;;2.69;73.92;98866.75;1088218;54;927;-81
2023/12/04 20:27:59;;;;;;;;;;;;;;;2.69;74.21;98865.91;1088180;54;1066;-80
2023/12/04 20:29:00;;;;;;;;;;;;;;;2.71;74.18;98867.47;1088265;54;1044;-81
2023/12/04 20:30:04;;;;;;;;;;;;;;;2.75;73.91;98875.97;1088430;47;898;-82
2023/12/04 20:31:20;;;;;;;;;;;;;;;2.61;74.15;98866.50;1088310;54;1004;-81
2023/12/04 20:32:42;;;;;;;;;;;;;;;2.65;74.14;98868.78;1088192;47;997;-81
2023/12/04 20:33:52;;;;;;;;;;;;;;;2.63;73.87;98864.59;1088299;54;994;-81
2023/12/04 20:34:55;;;;;;;;;;;;;;;2.59;73.99;98874.56;1088135;47;1206;-80
2023/12/04 20:35:56;;;;;;;;;;;;;;;2.62;74.24;98863.78;1088316;54;1068;-80
2023/12/04 20:37:24;;;;;;;;;;;;;;;2.61;73.80;98867.38;1088331;47;1003;-82
2023/12/04 20:38:27;;;;;;;;;;;;;;;2.48;74.44;98861.38;1088224;54;999;-81
2023/12/04 20:39:42;;;;;;;;;;;;;;;2.44;74.56;98865.25;1088296;47;906;-80
2023/12/04 20:40:48;;;;;;;;;;;;;;;2.47;74.56;98864.97;1088123;54;929;-80
2023/12/04 20:41:59;;;;;;;;;;;;;;;2.39;74.67;98859.47;1088285;54;1004;-82
2023/12/04 20:43:00;;;;;;;;;;;;;;;2.33;74.77;98856.38;1088301;54;1910;-81
2023/12/04 20:44:05;;;;;;;;;;;;;;;2.36;74.58;98862.38;1088319;47;1124;-80
2023/12/04 20:45:16;;;;;;;;;;;;;;;2.34;74.87;98855.41;1088262;54;1399;-80
2023/12/04 20:46:20;;;;;;;;;;;;;;;2.30;75.05;98848.69;1088156;47;966;-80
2023/12/04 20:47:30;;;;;;;;;;;;;;;2.32;74.75;98856.47;1088162;54;1041;-81
2023/12/04 20:48:33;;;;;;;;;;;;;;;2.30;75.27;98853.16;1088296;47;1011;-81
2023/12/04 20:49:34;;;;;;;;;;;;;;;2.33;75.12;98853.75;1088318;47;982;-82
2023/12/04 20:50:39;;;;;;;;;;;;;;;2.38;74.97;98849.88;1088311;54;922;-81
2023/12/04 20:51:43;;;;;;;;;;;;;;;2.25;75.46;98852.66;1088304;54;885;-79